메인 페이지
METAR-TAF:

METAR-TAF

공항 :

푼샬, 마데이라 제도, 포르투갈

마데이라 공항

위도: 32-41-52N, 경도: 016-46-28W, 고도: 59m

현재 날씨관측

예보는 15분 전, 09:30시(UTC)에 발표되었습니다.
북북동13kt, 순간 최대 풍속 28kt북북서풍과 풍을 오가는
온도 16°C
습도 68%
기압 1025 hPa
시정 10km 이상
고도 1500ft 상공 구름 보통

METAR: LPMA 180930Z 02013G28KT 340V090 9999 SCT015 16/10 Q1025

시각: 09:45 (09:45 UTC)

예보

예보는 4 시간 45분 전, 05:00시(UTC)에 발표되었습니다.
예보 대상 시간: 18일 06시부터 19일 06시까지 (UTC)
13kt
시정 10km 이상
고도 1300ft 상공 구름 보통
일시적
18일 06시부터 18일 24시까지 (UTC)
18kt, 순간 최대 풍속 28kt
일시적
18일 06시부터 18일 12시까지 (UTC)
시정: 5000m
고도 600ft 상공 구름 보통
고도 1300ft 상공 구름 많음
약한비, 이슬비, 박무

TAF: LPMA 180500Z 1806/1906 01013KT 9999 SCT013 TEMPO 1806/1824 01018G28KT TEMPO 1806/1812 5000 -RADZ BR SCT006 BKN013

4,000개 이상의 공항 관측 자료 및 예보 (METAR 및 TAF 보고).

지도상에서 검색 가능한 기상관측소가 노란 점과 빨간 점으로 표시되어 있습니다.

기상관측소 명을 보려면 표시 위로 마우스를 이동하세요.

날씨 관측과 예보를 보려면 클릭하세요.

지도 변경 : 확대하려면 엑스 표시가 있는 녹색 버튼, 축소하려면 빼기 표시가 있는 녹색 버튼, 다음 페이지의 지도를 보려면 녹색 화살표를 클릭하세요.


METAR-TAF: